createdAt,value
2023-08-04T00:01:21.411Z,97593.13
2023-08-04T00:03:51.484Z,97593.09
2023-08-04T00:06:19.783Z,97588.00
2023-08-04T00:08:55.098Z,97592.31
2023-08-04T00:11:25.195Z,97594.66
2023-08-04T00:13:55.056Z,97595.47
2023-08-04T00:16:24.832Z,97587.59
2023-08-04T00:18:52.608Z,97586.06
2023-08-04T00:21:20.611Z,97583.72
2023-08-04T00:23:48.659Z,97583.72
2023-08-04T00:26:16.464Z,97588.47
2023-08-04T00:28:44.418Z,97589.28
2023-08-04T00:31:16.592Z,97582.22
2023-08-04T00:33:46.311Z,97585.34
2023-08-04T00:36:14.140Z,97585.75
2023-08-04T00:38:43.214Z,97588.91
2023-08-04T00:41:11.152Z,97585.38
2023-08-04T00:43:39.532Z,97588.50
2023-08-04T00:46:08.132Z,97599.53
2023-08-04T00:48:36.726Z,97591.72
2023-08-04T00:51:06.011Z,97591.72
2023-08-04T00:53:33.849Z,97583.06
2023-08-04T00:56:01.706Z,97590.13
2023-08-04T00:58:30.426Z,97591.31
2023-08-04T01:00:58.242Z,97584.63
2023-08-04T01:03:27.225Z,97594.84
2023-08-04T01:06:02.594Z,97585.41
2023-08-04T01:08:36.924Z,97585.41
2023-08-04T01:11:10.447Z,97583.44
2023-08-04T01:13:41.009Z,97577.59
2023-08-04T01:16:09.899Z,97589.78
2023-08-04T01:18:38.778Z,97592.53
2023-08-04T01:21:08.349Z,97594.09
2023-08-04T01:23:36.172Z,97594.91
2023-08-04T01:26:08.342Z,97603.53
2023-08-04T01:28:36.799Z,97593.69
2023-08-04T01:31:05.047Z,97595.59
2023-08-04T01:33:33.075Z,97594.06
2023-08-04T01:36:00.989Z,97594.06
2023-08-04T01:38:30.241Z,97593.28
2023-08-04T01:40:58.018Z,97590.91
2023-08-04T01:43:25.779Z,97601.13
2023-08-04T01:45:53.548Z,97595.59
2023-08-04T01:48:21.258Z,97594.06
2023-08-04T01:50:49.030Z,97586.19
2023-08-04T01:53:16.819Z,97603.91
2023-08-04T01:55:49.026Z,97601.97
2023-08-04T01:58:16.868Z,97594.91
2023-08-04T02:00:45.040Z,97605.91
2023-08-04T02:03:14.032Z,97603.53
2023-08-04T02:05:47.153Z,97608.25
2023-08-04T02:08:14.867Z,97611.44
2023-08-04T02:10:50.184Z,97608.28
2023-08-04T02:13:18.386Z,97607.50
2023-08-04T02:15:46.290Z,97612.19
2023-08-04T02:18:14.114Z,97601.22
2023-08-04T02:20:42.172Z,97597.69
2023-08-04T02:23:09.993Z,97602.38
2023-08-04T02:25:38.050Z,97610.66
2023-08-04T02:28:08.493Z,97615.78
2023-08-04T02:30:36.275Z,97611.03
2023-08-04T02:33:04.140Z,97613.78
2023-08-04T02:35:31.905Z,97609.06
2023-08-04T02:37:59.643Z,97597.25
2023-08-04T02:40:27.540Z,97603.56
2023-08-04T02:42:55.266Z,97590.97
2023-08-04T02:45:24.415Z,97591.78
2023-08-04T02:47:52.205Z,97586.25
2023-08-04T02:50:20.032Z,97594.13
2023-08-04T02:52:47.876Z,97587.03
2023-08-04T02:55:15.775Z,97585.47
2023-08-04T02:57:43.553Z,97584.69
2023-08-04T03:00:12.322Z,97585.47
2023-08-04T03:02:41.440Z,97599.59
2023-08-04T03:05:09.964Z,97597.25
2023-08-04T03:07:37.669Z,97598.84
2023-08-04T03:10:06.494Z,97598.06
2023-08-04T03:12:34.286Z,97590.97
2023-08-04T03:15:03.453Z,97596.47
2023-08-04T03:17:31.210Z,97598.81
2023-08-04T03:20:00.280Z,97605.09
2023-08-04T03:22:28.090Z,97596.44
2023-08-04T03:24:59.315Z,97596.44
2023-08-04T03:27:28.320Z,97602.34
2023-08-04T03:29:56.028Z,97608.19
2023-08-04T03:32:24.304Z,97611.34
2023-08-04T03:34:52.130Z,97620.38
2023-08-04T03:37:21.173Z,97619.97
2023-08-04T03:39:49.646Z,97624.69
2023-08-04T03:42:20.105Z,97616.06
2023-08-04T03:44:47.812Z,97619.25
2023-08-04T03:47:15.635Z,97623.16
2023-08-04T03:49:43.359Z,97622.41
2023-08-04T03:52:11.585Z,97623.19
2023-08-04T03:54:40.685Z,97623.97
2023-08-04T03:57:08.677Z,97620.03
2023-08-04T03:59:36.546Z,97614.16
2023-08-04T04:02:04.461Z,97613.75
2023-08-04T04:04:33.392Z,97613.00
2023-08-04T04:07:01.198Z,97606.69
2023-08-04T04:09:28.889Z,97612.19
2023-08-04T04:11:58.234Z,97616.13
2023-08-04T04:14:25.969Z,97626.75
2023-08-04T04:16:53.787Z,97625.56
2023-08-04T04:19:21.694Z,97631.06
2023-08-04T04:21:49.720Z,97641.25
2023-08-04T04:24:17.635Z,97643.63
2023-08-04T04:26:45.433Z,97651.50
2023-08-04T04:29:14.514Z,97650.34
2023-08-04T04:31:42.589Z,97653.06
2023-08-04T04:34:12.423Z,97661.72
2023-08-04T04:36:40.153Z,97654.31
2023-08-04T04:39:08.498Z,97660.19
2023-08-04T04:41:37.548Z,97669.63
2023-08-04T04:44:05.746Z,97669.63
2023-08-04T04:46:36.203Z,97675.91
2023-08-04T04:49:04.697Z,97663.34
2023-08-04T04:51:34.914Z,97668.06
2023-08-04T04:54:05.124Z,97666.88
2023-08-04T04:56:34.956Z,97664.13
2023-08-04T04:59:06.095Z,97662.56
2023-08-04T05:01:35.330Z,97663.72
2023-08-04T05:04:05.095Z,97672.78
2023-08-04T05:06:34.634Z,97678.28
2023-08-04T05:09:02.798Z,97695.16
2023-08-04T05:11:30.578Z,97698.72
2023-08-04T05:13:58.903Z,97702.66
2023-08-04T05:16:26.738Z,97704.63
2023-08-04T05:18:55.931Z,97701.09
2023-08-04T05:21:23.656Z,97700.28
2023-08-04T05:23:51.636Z,97695.16
2023-08-04T05:26:23.534Z,97683.75
2023-08-04T05:28:52.658Z,97690.84
2023-08-04T05:31:22.232Z,97695.56
2023-08-04T05:33:52.529Z,97695.59
2023-08-04T05:36:24.737Z,97697.16
2023-08-04T05:38:54.586Z,97697.94
2023-08-04T05:41:22.315Z,97696.38
2023-08-04T05:43:50.395Z,97692.41
2023-08-04T05:46:19.733Z,97690.06
2023-08-04T05:48:50.939Z,97697.13
2023-08-04T05:51:19.291Z,97694.00
2023-08-04T05:53:50.786Z,97695.53
2023-08-04T05:56:20.004Z,97688.47
2023-08-04T05:58:51.998Z,97690.00
2023-08-04T06:01:21.235Z,97690.41
2023-08-04T06:03:54.893Z,97696.25
2023-08-04T06:06:24.757Z,97707.25
2023-08-04T06:08:56.161Z,97703.25
2023-08-04T06:11:24.548Z,97702.91
2023-08-04T06:13:54.682Z,97706.16
2023-08-04T06:16:23.978Z,97703.31
2023-08-04T06:18:53.349Z,97706.50
2023-08-04T06:21:21.893Z,97712.03
2023-08-04T06:23:50.229Z,97712.81
2023-08-04T06:26:20.531Z,97715.97
2023-08-04T06:28:55.092Z,97720.66
2023-08-04T06:31:23.369Z,97722.22
2023-08-04T06:33:51.422Z,97726.16
2023-08-04T06:36:24.986Z,97720.66
2023-08-04T06:38:53.977Z,97718.28
2023-08-04T06:41:28.460Z,97726.16
2023-08-04T06:43:58.340Z,97719.75
2023-08-04T06:46:27.753Z,97722.00
2023-08-04T06:48:55.501Z,97721.59
2023-08-04T06:51:23.264Z,97719.56
2023-08-04T06:53:51.132Z,97718.66
2023-08-04T06:56:20.439Z,97711.53
2023-08-04T06:58:49.884Z,97708.09
2023-08-04T07:01:17.633Z,97707.94
2023-08-04T07:03:48.339Z,97712.25
2023-08-04T07:06:16.179Z,97711.78
2023-08-04T07:08:43.903Z,97710.59
2023-08-04T07:11:16.423Z,97711.22
2023-08-04T07:13:45.381Z,97711.56
2023-08-04T07:16:14.840Z,97705.78
2023-08-04T07:18:42.647Z,97709.63
2023-08-04T07:21:11.818Z,97715.50
2023-08-04T07:23:40.007Z,97702.94
2023-08-04T07:26:08.572Z,97704.53
2023-08-04T07:28:40.783Z,97711.63
2023-08-04T07:31:10.722Z,97720.28
2023-08-04T07:33:39.938Z,97724.75
2023-08-04T07:36:07.729Z,97719.94
2023-08-04T07:38:35.628Z,97722.81
2023-08-04T07:41:04.645Z,97707.59
2023-08-04T07:43:32.391Z,97721.72
2023-08-04T07:46:00.276Z,97725.47
2023-08-04T07:48:28.136Z,97729.31
2023-08-04T07:50:58.844Z,97722.09
2023-08-04T07:53:27.955Z,97724.69
2023-08-04T07:55:57.257Z,97710.97
2023-08-04T07:58:24.993Z,97711.81
2023-08-04T08:00:52.864Z,97712.50
2023-08-04T08:03:20.821Z,97725.25
2023-08-04T08:05:49.324Z,97719.03
2023-08-04T08:08:20.627Z,97718.22
2023-08-04T08:10:48.370Z,97705.72
2023-08-04T08:13:16.299Z,97713.94
2023-08-04T08:15:44.047Z,97722.44
2023-08-04T08:18:11.893Z,97728.63
2023-08-04T08:20:42.074Z,97717.28
2023-08-04T08:23:10.101Z,97721.16
2023-08-04T08:25:39.867Z,97722.66
2023-08-04T08:28:07.816Z,97714.94
2023-08-04T08:30:35.589Z,97720.31
2023-08-04T08:33:03.623Z,97729.53
2023-08-04T08:35:31.671Z,97719.88
2023-08-04T08:38:00.539Z,97727.06
2023-08-04T08:40:28.288Z,97724.56
2023-08-04T08:42:58.725Z,97728.88
2023-08-04T08:45:29.393Z,97713.81
2023-08-04T08:48:00.296Z,97722.81
2023-08-04T08:50:29.427Z,97716.59
2023-08-04T08:53:04.678Z,97711.56
2023-08-04T08:55:33.568Z,97710.75
2023-08-04T08:58:03.644Z,97703.75
2023-08-04T09:00:31.449Z,97704.59
2023-08-04T09:03:00.045Z,97710.66
2023-08-04T09:05:27.989Z,97694.75
2023-08-04T09:07:55.906Z,97706.16
2023-08-04T09:10:23.895Z,97701.59
2023-08-04T09:12:53.928Z,97707.94
2023-08-04T09:15:34.089Z,97705.06
2023-08-04T09:18:02.639Z,97709.94
2023-08-04T09:20:31.679Z,97712.22
2023-08-04T09:22:59.791Z,97702.59
2023-08-04T09:25:27.644Z,97705.97
2023-08-04T09:27:56.749Z,97703.78
2023-08-04T09:30:26.291Z,97698.00
2023-08-04T09:32:56.478Z,97704.41
2023-08-04T09:35:24.362Z,97695.81
2023-08-04T09:37:56.748Z,97707.97
2023-08-04T09:40:24.686Z,97701.31
2023-08-04T09:42:52.472Z,97705.16
2023-08-04T09:45:20.645Z,97706.22
2023-08-04T09:47:50.818Z,97706.09
2023-08-04T09:50:19.883Z,97697.91
2023-08-04T09:52:47.868Z,97703.25
2023-08-04T09:55:15.674Z,97707.50
2023-08-04T09:57:43.882Z,97706.81
2023-08-04T10:00:13.218Z,97696.03
2023-08-04T10:02:41.896Z,97699.66
2023-08-04T10:05:13.751Z,97682.63
2023-08-04T10:07:42.724Z,97689.06
2023-08-04T10:10:11.535Z,97694.28
2023-08-04T10:12:40.404Z,97685.97
2023-08-04T10:15:09.631Z,97679.28
2023-08-04T10:17:37.541Z,97671.63
2023-08-04T10:20:07.430Z,97676.94
2023-08-04T10:22:36.902Z,97676.44
2023-08-04T10:25:15.146Z,97669.06
2023-08-04T10:27:49.482Z,97668.19
2023-08-04T10:30:17.693Z,97666.81
2023-08-04T10:32:46.303Z,97667.72
2023-08-04T10:35:19.857Z,97661.84
2023-08-04T10:37:51.352Z,97670.53
2023-08-04T10:40:30.261Z,97672.72
2023-08-04T10:43:05.222Z,97664.13
2023-08-04T10:45:54.092Z,97669.06
2023-08-04T10:48:25.503Z,97676.78
2023-08-04T10:50:53.401Z,97673.75
2023-08-04T10:53:22.623Z,97682.00
2023-08-04T10:55:56.532Z,97686.84
2023-08-04T10:58:27.223Z,97686.38
2023-08-04T11:00:55.930Z,97692.44
2023-08-04T11:03:25.084Z,97695.66
2023-08-04T11:05:54.686Z,97703.91
2023-08-04T11:08:25.251Z,97703.22
2023-08-04T11:10:55.718Z,97711.00
2023-08-04T11:13:25.358Z,97709.38
2023-08-04T11:15:55.261Z,97704.59
2023-08-04T11:18:25.843Z,97709.78
2023-08-04T11:20:54.617Z,97707.88
2023-08-04T11:23:28.729Z,97709.03
2023-08-04T11:25:57.571Z,97715.97
2023-08-04T11:28:26.614Z,97715.97
2023-08-04T11:30:56.658Z,97713.78
2023-08-04T11:33:24.541Z,97715.25
2023-08-04T11:35:52.521Z,97724.69
2023-08-04T11:38:20.381Z,97736.28
2023-08-04T11:41:02.112Z,97735.75
2023-08-04T11:43:32.862Z,97738.44
2023-08-04T11:46:05.614Z,97745.97
2023-08-04T11:48:35.486Z,97751.63
2023-08-04T11:51:06.106Z,97749.97
2023-08-04T11:53:34.534Z,97751.47
2023-08-04T11:56:06.869Z,97735.78
2023-08-04T11:58:39.747Z,97740.94
2023-08-04T12:01:09.820Z,97731.47
2023-08-04T12:03:45.056Z,97739.84
2023-08-04T12:06:21.607Z,97734.88
2023-08-04T12:08:52.117Z,97736.59
2023-08-04T12:11:24.869Z,97731.84
2023-08-04T12:13:53.229Z,97725.81
2023-08-04T12:16:23.533Z,97725.91
2023-08-04T12:18:51.880Z,97735.44
2023-08-04T12:21:20.055Z,97744.97
2023-08-04T12:23:49.834Z,97739.03
2023-08-04T12:26:18.241Z,97729.97
2023-08-04T12:28:47.603Z,97738.03
2023-08-04T12:31:16.841Z,97737.16
2023-08-04T12:33:44.918Z,97733.38
2023-08-04T12:36:13.231Z,97741.13
2023-08-04T12:38:42.347Z,97729.56
2023-08-04T12:41:11.585Z,97732.56
2023-08-04T12:43:39.458Z,97724.59
2023-08-04T12:46:08.749Z,97722.50
2023-08-04T12:48:37.636Z,97735.25
2023-08-04T12:51:05.821Z,97734.91
2023-08-04T12:53:33.667Z,97730.13
2023-08-04T12:56:01.503Z,97729.09
2023-08-04T12:58:32.331Z,97738.22
2023-08-04T13:01:00.569Z,97736.72
2023-08-04T13:03:29.761Z,97747.97
2023-08-04T13:05:57.700Z,97750.25
2023-08-04T13:08:25.583Z,97742.50
2023-08-04T13:10:53.532Z,97743.69
2023-08-04T13:13:21.689Z,97739.25
2023-08-04T13:15:50.015Z,97734.00
2023-08-04T13:18:18.019Z,97741.34
2023-08-04T13:20:48.325Z,97740.78
2023-08-04T13:23:18.017Z,97744.13
2023-08-04T13:25:46.077Z,97745.22
2023-08-04T13:28:14.383Z,97751.69
2023-08-04T13:30:45.326Z,97743.81
2023-08-04T13:33:13.181Z,97749.13
2023-08-04T13:35:40.978Z,97745.75
2023-08-04T13:38:10.266Z,97754.41
2023-08-04T13:40:38.103Z,97765.69
2023-08-04T13:43:05.979Z,97761.84
2023-08-04T13:45:33.966Z,97755.03
2023-08-04T13:48:01.709Z,97757.41
2023-08-04T13:50:29.570Z,97745.66
2023-08-04T13:52:59.171Z,97754.72
2023-08-04T13:55:28.427Z,97755.25
2023-08-04T13:57:56.515Z,97756.81
2023-08-04T14:00:24.316Z,97752.34
2023-08-04T14:02:52.139Z,97748.47
2023-08-04T14:05:20.607Z,97750.44
2023-08-04T14:07:48.549Z,97754.41
2023-08-04T14:10:16.384Z,97748.69
2023-08-04T14:12:45.677Z,97739.84
2023-08-04T14:15:13.556Z,97734.38
2023-08-04T14:17:42.227Z,97745.78
2023-08-04T14:20:15.436Z,97750.38
2023-08-04T14:22:43.278Z,97741.78
2023-08-04T14:25:11.101Z,97731.13
2023-08-04T14:27:38.929Z,97732.00
2023-08-04T14:30:09.969Z,97729.22
2023-08-04T14:32:39.613Z,97728.59
2023-08-04T14:35:08.611Z,97726.47
2023-08-04T14:37:36.493Z,97733.41
2023-08-04T14:40:04.757Z,97724.63
2023-08-04T14:42:35.070Z,97730.56
2023-08-04T14:45:03.092Z,97730.69
2023-08-04T14:47:32.672Z,97715.03
2023-08-04T14:50:00.515Z,97717.41
2023-08-04T14:52:28.399Z,97714.41
2023-08-04T14:54:56.226Z,97707.81
2023-08-04T14:57:24.200Z,97722.88
2023-08-04T14:59:52.288Z,97714.75
2023-08-04T15:02:22.173Z,97717.19
2023-08-04T15:04:55.424Z,97735.44
2023-08-04T15:07:24.334Z,97728.13
2023-08-04T15:09:53.090Z,97723.84
2023-08-04T15:12:20.786Z,97717.25
2023-08-04T15:14:49.000Z,97716.75
2023-08-04T15:17:16.951Z,97721.41
2023-08-04T15:19:45.133Z,97716.88
2023-08-04T15:22:14.339Z,97712.56
2023-08-04T15:24:42.767Z,97717.56
2023-08-04T15:27:10.552Z,97729.78
2023-08-04T15:29:38.369Z,97713.63
2023-08-04T15:32:07.364Z,97717.63
2023-08-04T15:34:36.434Z,97719.59
2023-08-04T15:37:04.960Z,97724.34
2023-08-04T15:39:34.121Z,97715.19
2023-08-04T15:42:02.151Z,97724.03
2023-08-04T15:44:29.936Z,97716.75
2023-08-04T15:46:58.535Z,97715.91
2023-08-04T15:49:26.334Z,97715.19
2023-08-04T15:51:54.075Z,97711.03
2023-08-04T15:54:22.190Z,97695.19
2023-08-04T15:56:53.797Z,97701.94
2023-08-04T15:59:21.757Z,97704.94
2023-08-04T16:01:49.590Z,97711.88
2023-08-04T16:04:17.735Z,97711.53
2023-08-04T16:06:45.618Z,97718.06
2023-08-04T16:09:14.732Z,97720.06
2023-08-04T16:11:42.514Z,97732.06
2023-08-04T16:14:11.660Z,97723.19
2023-08-04T16:16:39.720Z,97726.34
2023-08-04T16:19:08.041Z,97740.91
2023-08-04T16:21:35.841Z,97740.06
2023-08-04T16:24:03.889Z,97747.00
2023-08-04T16:26:32.882Z,97754.94
2023-08-04T16:29:00.784Z,97754.03
2023-08-04T16:31:29.883Z,97750.59
2023-08-04T16:34:01.255Z,97745.88
2023-08-04T16:36:29.612Z,97751.88
2023-08-04T16:38:58.128Z,97753.38
2023-08-04T16:41:26.026Z,97754.66
2023-08-04T16:43:53.749Z,97747.53
2023-08-04T16:46:21.999Z,97758.09
2023-08-04T16:48:51.418Z,97753.91
2023-08-04T16:51:19.239Z,97750.53
2023-08-04T16:53:47.478Z,97757.81
2023-08-04T16:56:15.338Z,97758.66
2023-08-04T16:58:43.129Z,97757.81
2023-08-04T17:01:13.014Z,97758.78
2023-08-04T17:03:41.084Z,97758.94
2023-08-04T17:06:13.522Z,97763.69
2023-08-04T17:08:41.435Z,97769.53
2023-08-04T17:11:09.942Z,97780.78
2023-08-04T17:13:37.848Z,97788.47
2023-08-04T17:16:12.313Z,97791.75
2023-08-04T17:18:40.501Z,97797.78
2023-08-04T17:21:09.639Z,97802.38
2023-08-04T17:23:39.177Z,97801.84
2023-08-04T17:26:07.212Z,97802.91
2023-08-04T17:28:35.102Z,97802.19
2023-08-04T17:31:04.882Z,97813.38
2023-08-04T17:33:34.516Z,97815.84
2023-08-04T17:36:05.268Z,97817.41
2023-08-04T17:38:33.481Z,97803.31
2023-08-04T17:41:03.514Z,97801.03
2023-08-04T17:43:32.711Z,97803.63
2023-08-04T17:46:01.051Z,97800.75
2023-08-04T17:48:28.877Z,97812.22
2023-08-04T17:50:59.105Z,97815.56
2023-08-04T17:53:27.738Z,97826.34
2023-08-04T17:55:55.538Z,97854.34
2023-08-04T17:58:24.717Z,97850.47
2023-08-04T18:00:53.121Z,97846.59
2023-08-04T18:03:21.822Z,97829.75
2023-08-04T18:05:50.175Z,97831.69
2023-08-04T18:08:18.112Z,97836.44
2023-08-04T18:10:47.231Z,97828.69
2023-08-04T18:13:17.046Z,97838.38
2023-08-04T18:15:46.353Z,97840.50
2023-08-04T18:18:15.183Z,97847.94
2023-08-04T18:20:43.128Z,97855.03
2023-08-04T18:23:11.023Z,97882.59
2023-08-04T18:25:40.052Z,97887.38
2023-08-04T18:28:08.324Z,97907.19
2023-08-04T18:30:36.692Z,97935.88
2023-08-04T18:33:06.154Z,97936.44
2023-08-04T18:35:34.376Z,97941.19
2023-08-04T18:38:02.626Z,97951.78
2023-08-04T18:40:30.847Z,97944.25
2023-08-04T18:43:01.870Z,97959.97
2023-08-04T18:45:30.725Z,97950.47
2023-08-04T18:47:58.977Z,97951.25
2023-08-04T18:50:28.256Z,97960.69
2023-08-04T18:52:56.030Z,97958.38
2023-08-04T18:55:25.413Z,97950.41
2023-08-04T18:57:53.187Z,97963.00
2023-08-04T19:00:25.629Z,97966.19
2023-08-04T19:02:53.582Z,97973.59
2023-08-04T19:05:21.697Z,97969.28
2023-08-04T19:07:51.269Z,97969.72
2023-08-04T19:10:19.192Z,97966.97
2023-08-04T19:12:49.003Z,97970.13
2023-08-04T19:15:17.069Z,97969.28
2023-08-04T19:17:45.071Z,97971.63
2023-08-04T19:20:15.016Z,97966.91
2023-08-04T19:22:44.114Z,97960.59
2023-08-04T19:25:13.721Z,97974.78
2023-08-04T19:27:42.416Z,97976.38
2023-08-04T19:30:11.452Z,97969.69
2023-08-04T19:32:39.204Z,97967.00
2023-08-04T19:35:10.678Z,97970.09
2023-08-04T19:37:40.362Z,97968.94
2023-08-04T19:40:12.345Z,97970.94
2023-08-04T19:42:42.947Z,97969.38
2023-08-04T19:45:12.095Z,97985.09
2023-08-04T19:47:41.273Z,97981.50
2023-08-04T19:50:10.758Z,97973.63
2023-08-04T19:52:38.718Z,97971.72
2023-08-04T19:55:07.881Z,97974.13
2023-08-04T19:57:36.201Z,97972.56
2023-08-04T20:00:07.061Z,97972.56
2023-08-04T20:02:35.549Z,97966.28
2023-08-04T20:05:04.391Z,97971.75
2023-08-04T20:07:33.745Z,97969.00
2023-08-04T20:10:01.660Z,97966.66
2023-08-04T20:12:29.869Z,97971.38
2023-08-04T20:15:00.401Z,97970.19
2023-08-04T20:17:30.029Z,97974.88
2023-08-04T20:19:59.195Z,97967.00
2023-08-04T20:22:27.766Z,97968.56
2023-08-04T20:24:59.603Z,97976.81
2023-08-04T20:27:30.580Z,97974.88
2023-08-04T20:29:58.961Z,97970.13
2023-08-04T20:32:28.009Z,97965.34
2023-08-04T20:35:00.444Z,97963.41
2023-08-04T20:37:31.059Z,97965.38
2023-08-04T20:40:08.414Z,97969.28
2023-08-04T20:42:44.079Z,97973.22
2023-08-04T20:45:12.082Z,97975.63
2023-08-04T20:47:40.030Z,97972.50
2023-08-04T20:50:11.497Z,97968.53
2023-08-04T20:52:41.731Z,97961.44
2023-08-04T20:55:11.149Z,97970.09
2023-08-04T20:57:39.485Z,97967.34
2023-08-04T21:00:11.076Z,97967.75
2023-08-04T21:02:41.161Z,97965.34
2023-08-04T21:05:11.237Z,97973.22
2023-08-04T21:07:40.163Z,97981.47
2023-08-04T21:10:10.557Z,97981.88
2023-08-04T21:12:38.651Z,97991.69
2023-08-04T21:15:08.828Z,97999.94
2023-08-04T21:17:37.900Z,98009.34
2023-08-04T21:20:15.288Z,98006.19
2023-08-04T21:22:44.362Z,98012.81
2023-08-04T21:25:14.240Z,98013.25
2023-08-04T21:27:43.303Z,98015.66
2023-08-04T21:30:12.272Z,98025.50
2023-08-04T21:32:40.273Z,98023.50
2023-08-04T21:35:08.878Z,98025.84
2023-08-04T21:37:40.865Z,98021.94
2023-08-04T21:40:10.322Z,98039.97
2023-08-04T21:42:42.748Z,98035.63
2023-08-04T21:45:12.360Z,98032.88
2023-08-04T21:47:41.508Z,98035.25
2023-08-04T21:50:12.063Z,98042.66
2023-08-04T21:52:49.900Z,98045.41
2023-08-04T21:55:19.215Z,98036.75
2023-08-04T21:57:48.573Z,98037.53
2023-08-04T22:00:23.299Z,98035.94
2023-08-04T22:02:51.866Z,98029.25
2023-08-04T22:05:21.791Z,98019.41
2023-08-04T22:07:53.422Z,98012.34
2023-08-04T22:10:22.410Z,98014.72
2023-08-04T22:12:54.614Z,98017.91
2023-08-04T22:15:23.129Z,98001.38
2023-08-04T22:17:51.151Z,98016.31
2023-08-04T22:20:21.268Z,98003.72
2023-08-04T22:22:51.656Z,98002.91
2023-08-04T22:25:20.671Z,98002.91
2023-08-04T22:27:49.465Z,97991.88
2023-08-04T22:30:17.391Z,98006.00
2023-08-04T22:32:45.417Z,98011.53
2023-08-04T22:35:13.469Z,98011.50
2023-08-04T22:37:43.273Z,98021.72
2023-08-04T22:40:13.620Z,98024.09
2023-08-04T22:42:42.032Z,98026.84
2023-08-04T22:45:12.365Z,98030.41
2023-08-04T22:47:40.824Z,98024.09
2023-08-04T22:50:10.462Z,98022.16
2023-08-04T22:52:39.630Z,98027.25
2023-08-04T22:55:08.133Z,98037.47
2023-08-04T22:57:37.280Z,98030.41
2023-08-04T23:00:05.638Z,98045.31
2023-08-04T23:02:33.629Z,98045.31
2023-08-04T23:05:01.676Z,98042.09
2023-08-04T23:07:29.441Z,98041.28
2023-08-04T23:09:57.811Z,98046.03
2023-08-04T23:12:25.685Z,98046.03
2023-08-04T23:14:54.947Z,98046.03
2023-08-04T23:17:22.660Z,98041.28
2023-08-04T23:19:50.679Z,98043.69
2023-08-04T23:22:18.588Z,98044.50
2023-08-04T23:24:47.580Z,98031.97
2023-08-04T23:27:15.349Z,98037.47
2023-08-04T23:29:43.109Z,98044.56
2023-08-04T23:32:12.871Z,98030.44
2023-08-04T23:34:40.954Z,98031.59
2023-08-04T23:37:09.248Z,98024.94
2023-08-04T23:39:37.006Z,98019.44
2023-08-04T23:42:05.207Z,98023.41
2023-08-04T23:44:32.978Z,98022.63
2023-08-04T23:47:00.879Z,98018.75
2023-08-04T23:49:30.050Z,98011.28
2023-08-04T23:51:57.791Z,98023.41
2023-08-04T23:54:25.534Z,98032.88
2023-08-04T23:56:53.297Z,98021.13
2023-08-04T23:59:21.227Z,98016.84
